createdAt,value
2022-10-13T00:01:32.375Z,35.50
2022-10-13T00:04:34.295Z,32.65
2022-10-13T00:07:36.234Z,32.03
2022-10-13T00:10:39.053Z,31.80
2022-10-13T00:13:41.994Z,35.05
2022-10-13T00:16:43.944Z,38.43
2022-10-13T00:19:45.897Z,38.13
2022-10-13T00:22:48.168Z,44.17
2022-10-13T00:25:50.705Z,38.17
2022-10-13T00:28:53.294Z,34.43
2022-10-13T00:31:55.400Z,40.67
2022-10-13T00:34:57.875Z,42.78
2022-10-13T00:37:59.848Z,38.40
2022-10-13T00:41:06.448Z,48.10
2022-10-13T00:44:26.965Z,40.95
2022-10-13T00:47:31.047Z,41.67
2022-10-13T00:50:35.541Z,39.03
2022-10-13T00:53:38.548Z,35.58
2022-10-13T00:56:41.858Z,35.00
2022-10-13T00:59:43.817Z,39.67
2022-10-13T01:02:45.740Z,37.72
2022-10-13T01:05:48.567Z,39.75
2022-10-13T01:08:50.769Z,39.33
2022-10-13T01:11:52.768Z,39.28
2022-10-13T01:15:10.594Z,40.45
2022-10-13T01:18:21.547Z,33.60
2022-10-13T01:21:33.229Z,38.97
2022-10-13T01:24:41.814Z,38.80
2022-10-13T01:28:02.354Z,34.90
2022-10-13T01:31:18.296Z,35.13
2022-10-13T01:34:32.495Z,37.90
2022-10-13T01:37:37.326Z,37.00
2022-10-13T01:40:39.234Z,37.28
2022-10-13T01:43:45.492Z,40.05
2022-10-13T01:46:48.656Z,42.58
2022-10-13T01:49:50.927Z,34.53
2022-10-13T01:52:53.231Z,37.93
2022-10-13T01:55:59.847Z,40.25
2022-10-13T01:59:03.641Z,41.15
2022-10-13T02:02:14.548Z,35.37
2022-10-13T02:05:23.271Z,37.90
2022-10-13T02:08:28.204Z,37.65
2022-10-13T02:11:30.165Z,39.10
2022-10-13T02:14:33.118Z,39.43
2022-10-13T02:17:35.376Z,37.28
2022-10-13T02:20:37.590Z,31.90
2022-10-13T02:23:39.507Z,35.58
2022-10-13T02:26:43.685Z,31.25
2022-10-13T02:29:50.238Z,35.80
2022-10-13T02:32:54.656Z,39.33
2022-10-13T02:35:56.611Z,34.00
2022-10-13T02:38:58.988Z,32.50
2022-10-13T02:42:00.924Z,33.03
2022-10-13T02:45:02.941Z,34.23
2022-10-13T02:48:05.247Z,35.53
2022-10-13T02:51:07.213Z,34.10
2022-10-13T02:54:09.147Z,34.47
2022-10-13T02:57:11.108Z,33.00
2022-10-13T03:00:13.380Z,36.70
2022-10-13T03:03:15.338Z,33.72
2022-10-13T03:06:18.286Z,33.90
2022-10-13T03:09:20.216Z,31.73
2022-10-13T03:12:22.572Z,35.50
2022-10-13T03:15:25.208Z,32.97
2022-10-13T03:18:30.179Z,32.72
2022-10-13T03:21:32.137Z,33.42
2022-10-13T03:24:34.073Z,33.30
2022-10-13T03:27:36.146Z,30.17
2022-10-13T03:30:38.073Z,29.85
2022-10-13T03:33:40.172Z,30.88
2022-10-13T03:36:42.175Z,32.23
2022-10-13T03:39:44.178Z,28.50
2022-10-13T03:42:47.396Z,32.58
2022-10-13T03:45:58.797Z,25.33
2022-10-13T03:49:00.758Z,40.70
2022-10-13T03:52:05.635Z,29.63
2022-10-13T03:55:07.711Z,34.53
2022-10-13T03:58:09.617Z,30.50
2022-10-13T04:01:12.915Z,29.98
2022-10-13T04:04:17.423Z,27.58
2022-10-13T04:07:22.318Z,30.77
2022-10-13T04:10:24.449Z,25.90
2022-10-13T04:13:26.411Z,27.48
2022-10-13T04:16:29.478Z,26.83
2022-10-13T04:19:31.829Z,32.35
2022-10-13T04:22:40.474Z,24.95
2022-10-13T04:25:42.429Z,29.45
2022-10-13T04:28:44.932Z,30.63
2022-10-13T04:31:46.924Z,28.20
2022-10-13T04:34:49.032Z,33.00
2022-10-13T04:37:50.993Z,29.27
2022-10-13T04:40:52.932Z,33.05
2022-10-13T04:43:55.161Z,26.48
2022-10-13T04:46:57.600Z,31.70
2022-10-13T04:49:59.557Z,31.45
2022-10-13T04:53:01.466Z,31.70
2022-10-13T04:56:05.086Z,36.15
2022-10-13T04:59:07.149Z,31.83
2022-10-13T05:02:10.614Z,40.35
2022-10-13T05:05:12.671Z,36.92
2022-10-13T05:08:14.628Z,31.87
2022-10-13T05:11:17.207Z,31.83
2022-10-13T05:14:22.030Z,28.95
2022-10-13T05:17:23.965Z,26.97
2022-10-13T05:20:26.400Z,31.52
2022-10-13T05:23:28.402Z,30.65
2022-10-13T05:26:32.356Z,29.83
2022-10-13T05:29:34.538Z,25.70
2022-10-13T05:32:36.569Z,28.85
2022-10-13T05:35:38.623Z,28.55
2022-10-13T05:38:40.793Z,28.53
2022-10-13T05:41:42.876Z,28.55
2022-10-13T05:44:51.677Z,28.48
2022-10-13T05:47:53.839Z,25.30
2022-10-13T05:50:57.487Z,21.85
2022-10-13T05:54:09.045Z,26.00
2022-10-13T05:57:15.872Z,19.88
2022-10-13T06:00:21.032Z,23.02
2022-10-13T06:03:28.888Z,23.38
2022-10-13T06:06:32.755Z,22.65
2022-10-13T06:09:35.772Z,20.40
2022-10-13T06:12:37.985Z,22.55
2022-10-13T06:15:40.110Z,22.25
2022-10-13T06:18:42.165Z,22.83
2022-10-13T06:21:44.163Z,17.15
2022-10-13T06:24:46.383Z,16.10
2022-10-13T06:27:48.463Z,16.08
2022-10-13T06:30:56.695Z,21.67
2022-10-13T06:33:59.160Z,19.27
2022-10-13T06:37:01.419Z,20.73
2022-10-13T06:40:03.565Z,16.13
2022-10-13T06:43:05.886Z,22.07
2022-10-13T06:46:16.159Z,18.08
2022-10-13T06:49:18.236Z,18.75
2022-10-13T06:52:20.912Z,18.67
2022-10-13T06:55:23.990Z,21.33
2022-10-13T06:58:26.805Z,18.63
2022-10-13T07:01:29.037Z,19.45
2022-10-13T07:04:35.686Z,17.42
2022-10-13T07:07:37.817Z,20.47
2022-10-13T07:10:40.914Z,23.33
2022-10-13T07:13:46.398Z,14.57
2022-10-13T07:16:51.218Z,17.88
2022-10-13T07:19:57.738Z,21.27
2022-10-13T07:23:00.200Z,14.43
2022-10-13T07:26:02.312Z,13.77
2022-10-13T07:29:04.491Z,19.48
2022-10-13T07:32:06.851Z,14.75
2022-10-13T07:35:09.923Z,14.55
2022-10-13T07:38:12.379Z,16.10
2022-10-13T07:41:24.487Z,11.57
2022-10-13T07:44:31.097Z,10.38
2022-10-13T07:47:33.175Z,14.60
2022-10-13T07:50:36.434Z,19.60
2022-10-13T07:53:38.973Z,11.87
2022-10-13T07:56:43.952Z,10.70
2022-10-13T07:59:46.768Z,15.20
2022-10-13T08:02:52.082Z,12.75
2022-10-13T08:05:54.192Z,17.48
2022-10-13T08:08:57.759Z,13.83
2022-10-13T08:12:00.895Z,14.03
2022-10-13T08:15:06.316Z,9.98
2022-10-13T08:18:09.781Z,11.63
2022-10-13T08:21:45.949Z,11.10
2022-10-13T08:24:39.600Z,10.63
2022-10-13T08:27:51.152Z,13.97
2022-10-13T08:30:54.117Z,8.88
2022-10-13T08:33:56.655Z,10.45
2022-10-13T08:37:00.368Z,11.65
2022-10-13T08:40:02.446Z,12.73
2022-10-13T08:43:16.133Z,13.17
2022-10-13T08:46:40.683Z,12.82
2022-10-13T08:49:43.610Z,11.38
2022-10-13T08:52:50.089Z,10.85
2022-10-13T08:55:55.568Z,10.67
2022-10-13T08:58:58.052Z,10.93
2022-10-13T09:02:03.632Z,11.77
2022-10-13T09:05:11.668Z,10.45
2022-10-13T09:08:20.116Z,16.38
2022-10-13T09:11:22.794Z,9.67
2022-10-13T09:14:27.837Z,9.23
2022-10-13T09:17:30.148Z,12.07
2022-10-13T09:20:42.020Z,12.45
2022-10-13T09:23:44.106Z,11.45
2022-10-13T09:26:47.074Z,9.47
2022-10-13T09:29:49.119Z,9.30
2022-10-13T09:32:51.472Z,7.45
2022-10-13T09:35:56.720Z,10.73
2022-10-13T09:39:07.004Z,11.52
2022-10-13T09:42:23.535Z,9.97
2022-10-13T09:45:26.624Z,9.93
2022-10-13T09:48:30.934Z,7.70
2022-10-13T09:51:35.409Z,10.95
2022-10-13T09:54:51.245Z,11.10
2022-10-13T09:57:55.633Z,9.40
2022-10-13T10:00:57.892Z,18.93
2022-10-13T10:04:09.970Z,10.77
2022-10-13T10:07:21.876Z,9.77
2022-10-13T10:10:37.338Z,8.38
2022-10-13T10:13:42.170Z,14.50
2022-10-13T10:16:46.583Z,11.37
2022-10-13T10:20:07.342Z,8.60
2022-10-13T10:23:17.581Z,17.05
2022-10-13T10:26:24.941Z,6.88
2022-10-13T10:29:49.892Z,10.77
2022-10-13T10:32:58.332Z,9.07
2022-10-13T10:36:21.997Z,13.65
2022-10-13T10:39:31.380Z,11.48
2022-10-13T10:42:51.952Z,10.10
2022-10-13T10:45:56.816Z,11.37
2022-10-13T10:49:01.390Z,12.93
2022-10-13T10:52:06.961Z,11.20
2022-10-13T10:55:15.439Z,11.82
2022-10-13T10:58:35.918Z,10.05
2022-10-13T11:01:51.866Z,11.90
2022-10-13T11:04:54.377Z,10.90
2022-10-13T11:07:57.898Z,12.88
2022-10-13T11:11:20.926Z,15.48
2022-10-13T11:14:27.069Z,11.20
2022-10-13T11:17:29.044Z,14.13
2022-10-13T11:20:34.065Z,16.30
2022-10-13T11:23:43.796Z,13.18
2022-10-13T11:26:45.778Z,15.13
2022-10-13T11:29:55.071Z,9.80
2022-10-13T11:32:57.180Z,10.77
2022-10-13T11:36:19.039Z,17.57
2022-10-13T11:39:28.043Z,12.85
2022-10-13T11:42:41.277Z,13.13
2022-10-13T11:46:01.971Z,14.13
2022-10-13T11:49:10.653Z,11.07
2022-10-13T11:52:21.847Z,11.83
2022-10-13T11:55:30.254Z,15.77
2022-10-13T11:58:33.148Z,12.35
2022-10-13T12:01:35.255Z,15.07
2022-10-13T12:04:41.575Z,12.37
2022-10-13T12:07:47.182Z,14.17
2022-10-13T12:10:52.765Z,11.52
2022-10-13T12:13:55.163Z,14.27
2022-10-13T12:16:57.819Z,13.23
2022-10-13T12:20:00.967Z,11.60
2022-10-13T12:23:03.746Z,15.30
2022-10-13T12:26:06.029Z,12.95
2022-10-13T12:29:12.040Z,8.95
2022-10-13T12:32:21.553Z,10.20
2022-10-13T12:35:25.835Z,11.03
2022-10-13T12:38:27.825Z,14.87
2022-10-13T12:41:34.846Z,10.35
2022-10-13T12:44:36.968Z,12.60
2022-10-13T12:47:44.780Z,11.18
2022-10-13T12:50:46.775Z,9.70
2022-10-13T12:53:48.747Z,16.00
2022-10-13T12:56:55.299Z,10.88
2022-10-13T12:59:59.218Z,9.65
2022-10-13T13:03:06.161Z,9.73
2022-10-13T13:06:13.165Z,13.00
2022-10-13T13:09:19.731Z,8.03
2022-10-13T13:12:23.274Z,9.10
2022-10-13T13:15:25.329Z,11.05
2022-10-13T13:18:27.242Z,10.88
2022-10-13T13:21:29.203Z,13.67
2022-10-13T13:24:39.769Z,15.80
2022-10-13T13:27:44.640Z,14.50
2022-10-13T13:30:51.324Z,15.45
2022-10-13T13:33:53.315Z,26.58
2022-10-13T13:36:55.237Z,10.03
2022-10-13T13:39:57.679Z,12.40
2022-10-13T13:42:59.743Z,13.50
2022-10-13T13:46:07.308Z,17.08
2022-10-13T13:49:10.579Z,9.65
2022-10-13T13:52:12.544Z,8.27
2022-10-13T13:55:14.622Z,10.23
2022-10-13T13:58:16.675Z,11.40
2022-10-13T14:01:18.769Z,12.93
2022-10-13T14:04:20.846Z,11.13
2022-10-13T14:07:23.287Z,10.63
2022-10-13T14:10:26.624Z,14.80
2022-10-13T14:13:28.588Z,15.02
2022-10-13T14:16:30.525Z,9.43
2022-10-13T14:19:33.176Z,16.27
2022-10-13T14:22:37.246Z,14.13
2022-10-13T14:25:39.211Z,11.60
2022-10-13T14:28:42.386Z,10.77
2022-10-13T14:31:44.463Z,15.20
2022-10-13T14:34:46.405Z,9.55
2022-10-13T14:37:48.419Z,14.10
2022-10-13T14:40:50.446Z,10.27
2022-10-13T14:43:55.603Z,14.13
2022-10-13T14:46:57.541Z,11.30
2022-10-13T14:50:01.966Z,30.02
2022-10-13T14:53:03.971Z,14.87
2022-10-13T14:56:19.297Z,10.70
2022-10-13T14:59:24.465Z,11.02
2022-10-13T15:02:26.465Z,15.02
2022-10-13T15:05:28.589Z,14.90
2022-10-13T15:08:30.605Z,18.27
2022-10-13T15:11:32.717Z,14.17
2022-10-13T15:14:34.726Z,11.55
2022-10-13T15:17:37.678Z,15.73
2022-10-13T15:20:39.664Z,14.65
2022-10-13T15:23:42.212Z,16.13
2022-10-13T15:26:44.328Z,21.10
2022-10-13T15:29:46.580Z,21.85
2022-10-13T15:32:50.436Z,21.05
2022-10-13T15:35:52.999Z,27.63
2022-10-13T15:38:55.041Z,25.63
2022-10-13T15:41:56.978Z,22.33
2022-10-13T15:45:14.273Z,18.85
2022-10-13T15:48:16.388Z,22.35
2022-10-13T15:51:19.636Z,21.10
2022-10-13T15:54:22.107Z,26.20
2022-10-13T15:57:24.090Z,26.57
2022-10-13T16:00:26.022Z,24.15
2022-10-13T16:03:29.868Z,25.52
2022-10-13T16:06:33.577Z,28.77
2022-10-13T16:09:35.598Z,31.40
2022-10-13T16:12:37.557Z,28.87
2022-10-13T16:15:39.509Z,27.27
2022-10-13T16:18:41.738Z,30.10
2022-10-13T16:21:43.883Z,32.83
2022-10-13T16:24:45.863Z,31.97
2022-10-13T16:27:47.834Z,28.00
2022-10-13T16:30:49.767Z,31.80
2022-10-13T16:33:51.690Z,31.20
2022-10-13T16:36:53.946Z,33.30
2022-10-13T16:39:55.907Z,27.97
2022-10-13T16:42:57.856Z,34.17
2022-10-13T16:46:01.156Z,32.90
2022-10-13T16:49:04.298Z,34.25
2022-10-13T16:52:06.280Z,46.17
2022-10-13T16:55:08.499Z,45.27
2022-10-13T16:58:10.759Z,47.93
2022-10-13T17:01:12.800Z,49.90
2022-10-13T17:04:17.315Z,45.78
2022-10-13T17:07:23.487Z,50.13
2022-10-13T17:10:25.596Z,48.43
2022-10-13T17:13:27.571Z,46.00
2022-10-13T17:16:30.145Z,45.00
2022-10-13T17:19:32.304Z,56.33
2022-10-13T17:22:34.247Z,48.70
2022-10-13T17:25:36.257Z,41.57
2022-10-13T17:28:41.978Z,54.50
2022-10-13T17:31:44.028Z,60.10
2022-10-13T17:34:46.081Z,43.40
2022-10-13T17:37:49.230Z,39.85
2022-10-13T17:40:57.311Z,33.40
2022-10-13T17:44:01.760Z,33.30
2022-10-13T17:47:03.789Z,35.05
2022-10-13T17:50:05.930Z,37.92
2022-10-13T17:53:07.849Z,32.90
2022-10-13T17:56:14.804Z,31.83
2022-10-13T17:59:17.619Z,26.95
2022-10-13T18:02:19.601Z,33.10
2022-10-13T18:05:21.547Z,30.75
2022-10-13T18:08:23.511Z,25.48
2022-10-13T18:11:25.484Z,24.43
2022-10-13T18:14:27.626Z,26.88
2022-10-13T18:17:29.576Z,28.67
2022-10-13T18:20:32.185Z,39.92
2022-10-13T18:23:35.900Z,33.08
2022-10-13T18:26:37.885Z,37.57
2022-10-13T18:29:39.821Z,33.60
2022-10-13T18:32:41.826Z,32.95
2022-10-13T18:35:45.259Z,37.40
2022-10-13T18:38:47.780Z,33.65
2022-10-13T18:41:50.238Z,37.50
2022-10-13T18:44:52.191Z,33.13
2022-10-13T18:47:54.137Z,36.60
2022-10-13T18:50:56.192Z,34.33
2022-10-13T18:54:00.429Z,43.83
2022-10-13T18:57:02.447Z,44.83
2022-10-13T19:00:06.759Z,36.70
2022-10-13T19:03:08.696Z,43.50
2022-10-13T19:06:11.857Z,46.60
2022-10-13T19:09:17.464Z,42.90
2022-10-13T19:12:19.522Z,46.97
2022-10-13T19:15:21.578Z,50.53
2022-10-13T19:18:25.094Z,46.25
2022-10-13T19:21:27.326Z,45.03
2022-10-13T19:24:29.339Z,47.23
2022-10-13T19:27:31.332Z,48.00
2022-10-13T19:30:33.374Z,44.60
2022-10-13T19:33:35.316Z,52.30
2022-10-13T19:36:39.263Z,54.30
2022-10-13T19:39:41.204Z,56.90
2022-10-13T19:42:43.117Z,51.63
2022-10-13T19:45:46.761Z,54.38
2022-10-13T19:48:49.865Z,62.33
2022-10-13T19:51:53.998Z,67.35
2022-10-13T19:54:56.235Z,67.70
2022-10-13T19:57:58.172Z,75.70
2022-10-13T20:01:04.329Z,71.83
2022-10-13T20:04:07.085Z,79.05
2022-10-13T20:07:10.463Z,81.57
2022-10-13T20:10:12.413Z,89.37
2022-10-13T20:13:14.486Z,87.73
2022-10-13T20:16:17.799Z,84.50
2022-10-13T20:19:19.898Z,78.72
2022-10-13T20:22:22.998Z,64.57
2022-10-13T20:25:25.252Z,73.93
2022-10-13T20:28:28.084Z,73.85
2022-10-13T20:31:30.116Z,71.38
2022-10-13T20:34:32.093Z,81.07
2022-10-13T20:37:34.221Z,82.22
2022-10-13T20:40:36.147Z,76.25
2022-10-13T20:43:38.128Z,82.93
2022-10-13T20:46:40.108Z,86.57
2022-10-13T20:49:42.038Z,73.88
2022-10-13T20:52:44.056Z,68.60
2022-10-13T20:55:54.828Z,74.90
2022-10-13T20:58:57.216Z,73.97
2022-10-13T21:01:59.206Z,74.97
2022-10-13T21:05:01.170Z,88.75
2022-10-13T21:08:03.128Z,96.97
2022-10-13T21:11:06.558Z,98.50
2022-10-13T21:14:09.769Z,100.07
2022-10-13T21:17:11.783Z,95.93
2022-10-13T21:20:13.739Z,94.82
2022-10-13T21:23:15.713Z,102.27
2022-10-13T21:26:21.688Z,88.28
2022-10-13T21:29:24.287Z,90.53
2022-10-13T21:32:26.290Z,90.53
2022-10-13T21:35:28.232Z,89.85
2022-10-13T21:38:30.340Z,86.78
2022-10-13T21:41:32.348Z,82.28
2022-10-13T21:44:34.276Z,67.45
2022-10-13T21:47:39.947Z,70.25
2022-10-13T21:50:42.065Z,73.00
2022-10-13T21:53:44.278Z,78.57
2022-10-13T21:56:46.366Z,78.65
2022-10-13T21:59:48.314Z,74.63
2022-10-13T22:02:50.275Z,72.30
2022-10-13T22:05:55.467Z,74.97
2022-10-13T22:08:58.153Z,71.57
2022-10-13T22:12:00.149Z,71.18
2022-10-13T22:15:02.172Z,75.40
2022-10-13T22:18:04.153Z,69.78
2022-10-13T22:21:08.217Z,70.10
2022-10-13T22:24:15.146Z,68.78
2022-10-13T22:27:17.089Z,73.10
2022-10-13T22:30:19.004Z,73.32
2022-10-13T22:33:21.051Z,75.80
2022-10-13T22:36:28.796Z,77.13
2022-10-13T22:39:30.782Z,77.70
2022-10-13T22:42:43.203Z,69.22
2022-10-13T22:45:51.872Z,71.85
2022-10-13T22:48:53.933Z,63.03
2022-10-13T22:51:55.836Z,69.65
2022-10-13T22:54:57.795Z,69.65
2022-10-13T22:57:59.776Z,60.50
2022-10-13T23:01:09.292Z,59.58
2022-10-13T23:04:11.263Z,66.80
2022-10-13T23:07:13.208Z,57.75
2022-10-13T23:10:15.244Z,61.80
2022-10-13T23:13:17.426Z,64.93
2022-10-13T23:16:24.975Z,62.47
2022-10-13T23:19:26.990Z,60.95
2022-10-13T23:22:29.207Z,62.17
2022-10-13T23:25:31.391Z,61.33
2022-10-13T23:28:33.881Z,62.45
2022-10-13T23:31:36.106Z,60.67
2022-10-13T23:34:38.034Z,64.25
2022-10-13T23:37:39.957Z,64.07
2022-10-13T23:40:41.905Z,68.65
2022-10-13T23:43:43.963Z,65.27
2022-10-13T23:46:45.908Z,64.30
2022-10-13T23:49:51.459Z,69.75
2022-10-13T23:52:55.248Z,67.63
2022-10-13T23:55:57.179Z,66.35
2022-10-13T23:59:03.355Z,60.75
